Time;durP1;ratioP1;P1;durP2;ratioP2;P2;SDS_P1;SDS_P2;PMS_P1;PMS_P2;Temp;Humidity;BMP_temperature;BMP_pressure;BME280_temperature;BME280_humidity;BME280_pressure;Samples;Min_cycle;Max_cycle;Signal;HPM_P1;HPM_P2
2021/09/22 00:00:34;;;;;;;;;35.50;25.25;;;;;14.34;74.55;102685.22;4987677;28;45425;-70
2021/09/22 00:02:59;;;;;;;;;29.75;27.00;;;;;14.29;74.97;102681.84;4989242;28;45593;-70
2021/09/22 00:05:25;;;;;;;;;36.00;29.00;;;;;14.29;74.84;102683.63;4990126;28;46838;-70
2021/09/22 00:07:50;;;;;;;;;28.25;25.25;;;;;14.25;75.04;102677.56;4979909;28;45493;-70
2021/09/22 00:10:19;;;;;;;;;38.25;29.75;;;;;14.22;75.27;102680.28;4978960;28;46342;-70
2021/09/22 00:12:44;;;;;;;;;33.75;27.75;;;;;14.17;75.20;102671.59;4980463;28;45452;-70
2021/09/22 00:15:12;;;;;;;;;30.00;24.50;;;;;14.19;75.14;102680.34;4988209;28;48249;-70
2021/09/22 00:17:37;;;;;;;;;35.25;25.25;;;;;14.15;75.09;102675.19;4981661;28;45541;-70
2021/09/22 00:20:03;;;;;;;;;30.25;23.50;;;;;14.12;75.27;102673.50;4988406;28;45305;-70
2021/09/22 00:22:28;;;;;;;;;32.25;27.00;;;;;14.09;75.18;102674.47;4984896;28;45435;-70
2021/09/22 00:24:53;;;;;;;;;40.00;25.25;;;;;14.07;75.38;102678.03;4992237;28;47364;-70
2021/09/22 00:27:19;;;;;;;;;32.75;27.75;;;;;14.02;75.35;102675.50;4980338;28;51850;-70
2021/09/22 00:29:44;;;;;;;;;30.75;29.00;;;;;13.99;75.30;102680.91;4980355;28;45840;-70
2021/09/22 00:32:09;;;;;;;;;32.75;25.75;;;;;13.90;75.30;102653.84;4979754;28;45493;-70
2021/09/22 00:34:35;;;;;;;;;34.50;28.75;;;;;13.98;75.34;102671.22;4982862;28;45560;-70
2021/09/22 00:37:04;;;;;;;;;35.50;31.00;;;;;13.96;75.28;102667.75;4990681;28;45459;-70
2021/09/22 00:39:30;;;;;;;;;32.50;29.50;;;;;13.97;75.53;102673.91;4977299;28;45455;-70
2021/09/22 00:41:55;;;;;;;;;34.25;25.75;;;;;13.96;75.64;102669.53;4978007;28;45376;-70
2021/09/22 00:44:20;;;;;;;;;31.00;27.50;;;;;13.95;75.83;102665.16;4980107;28;45561;-71
2021/09/22 00:46:45;;;;;;;;;35.50;27.25;;;;;13.90;75.87;102660.00;4989264;28;45486;-70
2021/09/22 00:49:11;;;;;;;;;34.00;27.75;;;;;13.90;75.95;102659.13;4980406;28;45720;-70
2021/09/22 00:51:36;;;;;;;;;25.25;24.25;;;;;13.89;75.46;102660.91;4983976;28;45458;-70
2021/09/22 00:54:02;;;;;;;;;31.50;26.75;;;;;13.85;75.96;102653.97;4990580;28;45420;-70
2021/09/22 00:56:28;;;;;;;;;33.00;27.50;;;;;13.87;75.91;102656.53;4990869;28;45675;-70
2021/09/22 00:58:53;;;;;;;;;36.00;26.00;;;;;13.86;75.94;102663.63;4985295;28;45285;-70
2021/09/22 01:01:19;;;;;;;;;33.50;29.25;;;;;13.85;75.75;102661.88;5003905;28;45511;-70
2021/09/22 01:03:44;;;;;;;;;32.25;26.00;;;;;13.80;75.89;102646.13;4980919;28;45420;-70
2021/09/22 01:06:14;;;;;;;;;34.00;25.50;;;;;13.78;75.88;102647.06;4992370;28;45314;-70
2021/09/22 01:08:41;;;;;;;;;37.25;29.50;;;;;13.78;76.07;102650.63;4992437;28;46608;-70
2021/09/22 01:11:06;;;;;;;;;37.50;27.50;;;;;13.76;75.84;102649.75;4992791;28;45534;-70
2021/09/22 01:13:31;;;;;;;;;36.25;31.75;;;;;13.73;76.02;102651.59;4982337;28;46312;-70
2021/09/22 01:15:58;;;;;;;;;39.50;30.25;;;;;13.73;76.05;102656.88;4986457;28;45366;-70
2021/09/22 01:18:23;;;;;;;;;31.25;28.25;;;;;13.74;76.19;102661.28;4984910;28;45496;-70
2021/09/22 01:20:52;;;;;;;;;38.75;29.75;;;;;13.72;76.24;102648.09;4983584;28;45665;-70
2021/09/22 01:23:17;;;;;;;;;33.25;27.00;;;;;13.69;76.08;102653.47;4987949;28;46188;-70
2021/09/22 01:25:46;;;;;;;;;35.50;26.00;;;;;13.66;76.42;102650.91;4991237;28;45510;-70
2021/09/22 01:28:15;;;;;;;;;31.00;27.00;;;;;13.63;76.30;102639.56;4983440;28;45483;-70
2021/09/22 01:30:41;;;;;;;;;39.75;28.50;;;;;13.58;76.50;102648.47;5008696;28;45479;-70
2021/09/22 01:33:08;;;;;;;;;36.50;26.50;;;;;13.57;76.51;102649.38;4990921;28;46392;-70
2021/09/22 01:35:39;;;;;;;;;31.75;28.75;;;;;13.53;76.50;102645.06;4987043;28;45462;-69
2021/09/22 01:38:07;;;;;;;;;32.75;26.25;;;;;13.54;76.53;102645.94;4987196;28;45221;-70
2021/09/22 01:40:33;;;;;;;;;35.50;29.00;;;;;13.51;76.46;102640.72;4982663;28;45483;-70
2021/09/22 01:42:59;;;;;;;;;30.25;26.75;;;;;13.44;76.66;102626.81;4986486;28;45920;-70
2021/09/22 01:45:24;;;;;;;;;30.75;25.75;;;;;13.46;76.48;102626.75;4979098;28;45434;-70
2021/09/22 01:47:49;;;;;;;;;34.50;27.50;;;;;13.45;76.73;102625.88;4990775;28;45645;-70
2021/09/22 01:50:18;;;;;;;;;38.75;28.25;;;;;13.43;76.74;102637.41;4988097;28;45564;-70
2021/09/22 01:52:46;;;;;;;;;29.75;24.50;;;;;13.39;76.91;102631.34;4982824;28;45757;-70
2021/09/22 01:55:12;;;;;;;;;35.50;29.75;;;;;13.38;76.85;102628.75;4993836;28;45369;-70
2021/09/22 01:57:38;;;;;;;;;37.75;30.75;;;;;13.33;76.79;102628.84;4992308;28;45546;-70
2021/09/22 02:00:06;;;;;;;;;31.25;27.00;;;;;13.23;76.76;102620.28;4992642;28;45332;-70
2021/09/22 02:02:31;;;;;;;;;35.00;30.00;;;;;13.31;76.87;102639.44;4982540;28;47937;-70
2021/09/22 02:04:57;;;;;;;;;32.25;28.00;;;;;13.31;76.96;102634.16;4984437;28;45465;-70
2021/09/22 02:07:22;;;;;;;;;32.50;25.25;;;;;13.29;77.07;102633.31;4989919;28;45589;-70
2021/09/22 02:09:48;;;;;;;;;41.75;30.50;;;;;13.28;77.11;102631.59;4986204;28;45443;-70
2021/09/22 02:12:13;;;;;;;;;36.00;27.75;;;;;13.26;77.38;102628.13;4979855;28;45518;-70
2021/09/22 02:14:38;;;;;;;;;35.00;29.75;;;;;13.11;77.44;102599.44;4990217;28;45498;-70
2021/09/22 02:17:04;;;;;;;;;36.25;29.00;;;;;13.25;77.34;102618.44;4991362;28;45397;-70
2021/09/22 02:19:29;;;;;;;;;32.25;26.75;;;;;13.22;77.34;102613.25;4994099;28;45546;-70
2021/09/22 02:21:55;;;;;;;;;37.25;28.00;;;;;13.28;77.59;102620.16;4984418;28;46428;-70
2021/09/22 02:24:20;;;;;;;;;38.00;28.75;;;;;13.27;77.52;102606.09;4992100;28;45428;-70
2021/09/22 02:26:46;;;;;;;;;44.75;34.50;;;;;13.27;77.35;102606.09;4989811;28;45789;-70
2021/09/22 02:29:11;;;;;;;;;36.75;29.75;;;;;13.26;77.38;102596.44;4991062;28;45449;-70
2021/09/22 02:31:36;;;;;;;;;36.75;33.00;;;;;13.28;77.53;102584.06;4988824;28;46320;-70
2021/09/22 02:34:02;;;;;;;;;31.75;29.00;;;;;13.24;77.59;102585.03;4991611;28;45600;-70
2021/09/22 02:36:28;;;;;;;;;36.00;27.00;;;;;13.24;77.31;102574.47;4991045;28;45425;-70
2021/09/22 02:38:54;;;;;;;;;37.75;32.00;;;;;13.25;77.90;102572.69;4991493;28;45550;-70
2021/09/22 02:41:19;;;;;;;;;44.00;34.25;;;;;13.24;77.72;102585.03;4988754;28;46196;-70
2021/09/22 02:43:45;;;;;;;;;36.25;31.00;;;;;13.19;77.45;102573.69;4990430;28;45403;-70
2021/09/22 02:46:10;;;;;;;;;42.75;33.75;;;;;13.07;77.79;102547.59;4988506;28;45456;-70
2021/09/22 02:48:36;;;;;;;;;35.00;28.00;;;;;13.16;77.88;102562.34;4991141;28;45527;-70
2021/09/22 02:51:02;;;;;;;;;42.75;34.25;;;;;13.20;77.92;102571.91;4985390;28;49266;-70
2021/09/22 02:53:28;;;;;;;;;39.50;32.25;;;;;13.19;77.81;102564.91;4984102;28;46088;-70
2021/09/22 02:55:53;;;;;;;;;35.25;30.00;;;;;13.19;77.95;102563.13;4979534;28;45433;-70
2021/09/22 02:58:19;;;;;;;;;36.75;33.25;;;;;13.18;77.84;102553.47;4984997;28;45407;-70
2021/09/22 03:00:44;;;;;;;;;46.50;30.75;;;;;13.20;77.72;102554.28;4981186;28;45603;-70
2021/09/22 03:03:09;;;;;;;;;31.50;29.25;;;;;13.18;77.68;102545.56;4979905;28;45475;-70
2021/09/22 03:05:35;;;;;;;;;35.25;28.50;;;;;13.22;77.62;102551.69;5003761;28;45477;-70
2021/09/22 03:08:00;;;;;;;;;37.75;32.50;;;;;13.22;77.82;102544.63;4991008;28;45407;-70
2021/09/22 03:10:26;;;;;;;;;39.50;35.00;;;;;13.16;77.59;102539.47;4990857;28;45475;-70
2021/09/22 03:12:53;;;;;;;;;46.75;33.50;;;;;13.18;77.46;102534.13;4981849;28;45412;-70
2021/09/22 03:15:18;;;;;;;;;34.25;30.00;;;;;13.20;77.29;102546.38;4994150;28;45502;-70
2021/09/22 03:17:44;;;;;;;;;45.25;32.25;;;;;13.21;77.45;102550.81;4983678;28;45246;-70
2021/09/22 03:20:10;;;;;;;;;41.00;32.75;;;;;13.19;77.62;102552.56;4984522;28;47200;-70
2021/09/22 03:22:36;;;;;;;;;42.75;30.75;;;;;13.16;77.58;102544.75;4987733;28;45407;-70
2021/09/22 03:25:01;;;;;;;;;41.50;29.50;;;;;13.15;77.54;102542.97;4987212;28;45459;-70
2021/09/22 03:27:26;;;;;;;;;41.50;33.25;;;;;13.17;77.41;102550.88;4991825;28;45380;-71
2021/09/22 03:29:52;;;;;;;;;45.25;34.00;;;;;13.16;77.35;102538.59;4978820;28;45417;-70
2021/09/22 03:32:17;;;;;;;;;38.50;31.00;;;;;13.17;77.48;102542.97;4984586;28;45470;-70
2021/09/22 03:34:42;;;;;;;;;38.50;31.25;;;;;13.14;77.73;102537.75;4990564;28;45273;-70
2021/09/22 03:37:08;;;;;;;;;37.25;31.00;;;;;13.16;77.40;102544.75;5002921;28;45565;-70
2021/09/22 03:39:33;;;;;;;;;33.25;29.75;;;;;13.14;77.46;102550.94;4979035;28;46203;-70
2021/09/22 03:41:59;;;;;;;;;39.25;31.75;;;;;13.13;77.48;102555.38;4980885;28;45566;-70
2021/09/22 03:44:25;;;;;;;;;41.50;31.75;;;;;13.06;77.33;102543.22;4986666;28;45467;-70
2021/09/22 03:46:51;;;;;;;;;36.50;32.25;;;;;13.15;77.40;102552.69;4990885;28;45427;-70
2021/09/22 03:49:17;;;;;;;;;39.25;34.00;;;;;13.10;77.43;102552.78;4990218;28;45929;-70
2021/09/22 03:51:42;;;;;;;;;40.00;32.00;;;;;13.10;77.34;102555.44;4984944;28;45628;-70
2021/09/22 03:54:08;;;;;;;;;41.25;35.50;;;;;13.07;77.37;102556.38;4990448;28;45487;-70
2021/09/22 03:56:33;;;;;;;;;37.25;30.75;;;;;13.10;77.39;102554.56;4989377;28;45536;-70
2021/09/22 03:58:58;;;;;;;;;36.25;31.50;;;;;13.10;77.42;102559.84;4985347;28;45527;-69
2021/09/22 04:01:23;;;;;;;;;37.00;33.50;;;;;13.10;77.34;102558.06;4978748;28;45793;-70
2021/09/22 04:03:49;;;;;;;;;39.75;33.00;;;;;13.09;77.16;102571.31;4978732;28;45479;-70
2021/09/22 04:06:14;;;;;;;;;44.00;31.67;;;;;13.08;76.96;102573.09;4989837;28;57154;-70
2021/09/22 04:08:39;;;;;;;;;37.00;30.75;;;;;13.04;77.22;102571.41;4983447;28;45513;-70
2021/09/22 04:11:05;;;;;;;;;36.75;30.50;;;;;13.03;77.18;102572.31;4983518;28;45538;-70
2021/09/22 04:13:30;;;;;;;;;40.75;33.50;;;;;13.00;77.41;102572.41;4990420;28;45460;-70
2021/09/22 04:15:55;;;;;;;;;38.75;29.75;;;;;13.00;77.34;102575.06;4988627;28;49420;-70
2021/09/22 04:18:21;;;;;;;;;43.75;28.25;;;;;12.96;77.35;102570.75;4986114;28;47273;-70
2021/09/22 04:20:46;;;;;;;;;41.50;33.50;;;;;12.93;77.20;102571.66;4983328;28;45305;-70
2021/09/22 04:23:11;;;;;;;;;30.75;27.25;;;;;12.91;77.16;102570.84;4987562;28;45452;-70
2021/09/22 04:25:37;;;;;;;;;41.00;30.75;;;;;12.87;77.43;102571.81;4981024;28;45548;-70
2021/09/22 04:28:02;;;;;;;;;37.25;32.00;;;;;12.85;77.43;102578.06;4992397;28;45619;-70
2021/09/22 04:30:28;;;;;;;;;45.00;34.75;;;;;12.86;77.52;102577.16;4980590;28;45439;-70
2021/09/22 04:32:53;;;;;;;;;43.75;35.00;;;;;12.83;77.62;102577.19;4990903;28;45516;-70
2021/09/22 04:35:18;;;;;;;;;38.25;31.25;;;;;12.83;77.73;102582.47;4989685;28;45456;-70
2021/09/22 04:37:44;;;;;;;;;37.50;33.50;;;;;12.79;77.57;102572.00;5007994;28;48187;-70
2021/09/22 04:40:11;;;;;;;;;46.75;33.50;;;;;12.80;77.49;102567.59;4988668;28;45561;-70
2021/09/22 04:42:37;;;;;;;;;41.25;33.00;;;;;12.80;77.69;102571.09;4989600;28;45429;-70
2021/09/22 04:45:04;;;;;;;;;43.50;31.75;;;;;12.79;77.62;102574.66;4991629;28;45499;-71
2021/09/22 04:47:30;;;;;;;;;51.25;37.00;;;;;12.78;77.58;102579.94;4993518;28;45435;-71
2021/09/22 04:49:57;;;;;;;;;37.75;31.25;;;;;12.76;77.73;102574.72;4989528;28;45376;-71
2021/09/22 04:52:22;;;;;;;;;44.00;35.00;;;;;12.72;77.60;102570.41;4992294;28;45529;-69
2021/09/22 04:54:48;;;;;;;;;43.50;33.25;;;;;12.76;77.77;102577.34;4986683;28;45624;-71
2021/09/22 04:57:13;;;;;;;;;39.75;29.75;;;;;12.76;77.62;102571.22;4982670;28;46406;-71
2021/09/22 04:59:38;;;;;;;;;42.25;34.00;;;;;12.71;77.84;102568.66;5001956;28;47005;-70
2021/09/22 05:02:03;;;;;;;;;40.00;29.75;;;;;12.74;77.72;102579.16;4995254;28;45228;-70
2021/09/22 05:04:29;;;;;;;;;46.25;34.75;;;;;12.74;77.63;102573.88;4992212;28;45388;-70
2021/09/22 05:06:54;;;;;;;;;43.25;32.00;;;;;12.74;77.62;102576.53;4996487;28;46015;-70
2021/09/22 05:09:19;;;;;;;;;42.75;34.50;;;;;12.71;77.42;102573.94;4988940;28;45463;-70
2021/09/22 05:11:45;;;;;;;;;43.75;34.50;;;;;12.71;77.66;102573.06;4985464;28;45236;-69
2021/09/22 05:14:10;;;;;;;;;55.00;40.75;;;;;12.66;77.27;102570.53;4995102;28;45289;-71
2021/09/22 05:16:35;;;;;;;;;52.25;39.50;;;;;12.66;77.91;102578.44;4990955;28;45494;-71
2021/09/22 05:19:01;;;;;;;;;72.75;49.75;;;;;12.64;77.72;102566.22;4987321;28;45372;-71
2021/09/22 05:21:26;;;;;;;;;67.25;48.00;;;;;12.62;77.59;102565.38;4988156;28;45415;-71
2021/09/22 05:23:52;;;;;;;;;69.50;50.00;;;;;12.61;77.89;102569.78;4985740;28;45332;-71
2021/09/22 05:26:17;;;;;;;;;63.00;47.00;;;;;12.60;77.66;102568.03;4988054;28;45429;-71
2021/09/22 05:28:42;;;;;;;;;67.75;52.50;;;;;12.60;78.21;102570.69;4990657;28;45491;-71
2021/09/22 05:31:08;;;;;;;;;63.25;48.25;;;;;12.61;78.08;102575.06;4990087;28;45534;-70
2021/09/22 05:33:33;;;;;;;;;69.00;47.50;;;;;12.60;78.12;102583.88;4991098;28;45474;-71
2021/09/22 05:35:58;;;;;;;;;60.75;45.75;;;;;12.52;78.19;102570.84;4986328;28;52128;-71
2021/09/22 05:38:24;;;;;;;;;55.50;39.75;;;;;12.54;77.88;102571.69;4988581;28;45445;-71
2021/09/22 05:40:49;;;;;;;;;60.25;42.25;;;;;12.52;78.11;102576.09;4990768;28;45794;-70
2021/09/22 05:43:15;;;;;;;;;48.50;36.75;;;;;12.50;78.09;102574.41;4992806;28;45389;-71
2021/09/22 05:45:40;;;;;;;;;47.00;37.75;;;;;12.53;78.16;102577.88;4981296;28;46279;-71
2021/09/22 05:48:06;;;;;;;;;42.25;34.00;;;;;12.54;77.96;102578.72;4994354;28;46691;-73
2021/09/22 05:50:31;;;;;;;;;45.25;35.50;;;;;12.59;78.14;102584.78;4985871;28;45273;-72
2021/09/22 05:52:56;;;;;;;;;52.00;36.00;;;;;12.61;78.07;102582.09;4983953;28;46769;-72
2021/09/22 05:55:22;;;;;;;;;45.50;37.00;;;;;12.65;77.74;102589.91;4993909;28;46516;-72
2021/09/22 05:57:47;;;;;;;;;46.50;33.75;;;;;12.69;78.08;102594.22;4987819;28;45394;-70
2021/09/22 06:00:13;;;;;;;;;37.00;31.25;;;;;12.72;77.64;102593.28;4988713;28;45442;-70
2021/09/22 06:02:38;;;;;;;;;47.00;36.00;;;;;12.77;78.02;102594.03;4985533;28;45565;-72
2021/09/22 06:05:04;;;;;;;;;44.75;35.50;;;;;12.84;77.94;102597.41;4988325;28;47553;-71
2021/09/22 06:07:31;;;;;;;;;46.25;35.25;;;;;12.90;77.74;102594.66;4987699;28;45285;-71
2021/09/22 06:09:56;;;;;;;;;52.00;36.75;;;;;13.00;77.48;102599.69;4987150;28;45828;-69
2021/09/22 06:12:22;;;;;;;;;43.50;34.25;;;;;13.10;77.51;102600.31;4988620;28;45241;-70
2021/09/22 06:14:47;;;;;;;;;36.00;32.25;;;;;13.21;77.36;102608.91;4990695;28;46263;-70
2021/09/22 06:17:12;;;;;;;;;35.25;33.00;;;;;13.30;77.07;102600.72;4995431;28;45345;-70
2021/09/22 06:19:38;;;;;;;;;44.25;38.25;;;;;13.43;76.95;102603.09;4991419;28;45515;-70
2021/09/22 06:22:03;;;;;;;;;52.75;35.00;;;;;13.49;76.80;102595.88;4995312;28;45408;-70
2021/09/22 06:24:29;;;;;;;;;43.00;34.00;;;;;13.59;76.17;102591.22;4994182;28;50624;-70
2021/09/22 06:26:55;;;;;;;;;35.50;34.00;;;;;13.70;76.22;102605.00;4986480;28;45875;-70
2021/09/22 06:29:21;;;;;;;;;50.25;36.25;;;;;13.78;76.30;102602.16;4988802;28;45545;-70
2021/09/22 06:31:46;;;;;;;;;40.50;33.75;;;;;13.86;75.68;102604.59;4988780;28;45536;-70
2021/09/22 06:34:12;;;;;;;;;44.25;33.00;;;;;13.96;75.74;102611.38;4987479;28;46160;-70
2021/09/22 06:36:37;;;;;;;;;40.50;31.00;;;;;14.01;75.20;102607.69;4986647;28;52672;-70
2021/09/22 06:39:03;;;;;;;;;37.00;31.50;;;;;14.00;74.97;102592.75;4989969;28;45417;-70
2021/09/22 06:41:30;;;;;;;;;44.00;33.50;;;;;14.15;74.67;102612.63;4988550;28;45565;-70
2021/09/22 06:43:56;;;;;;;;;41.50;34.00;;;;;14.22;74.50;102608.88;4987611;28;47299;-70
2021/09/22 06:46:22;;;;;;;;;47.75;34.75;;;;;14.27;74.10;102606.97;4979798;28;45960;-70
2021/09/22 06:48:47;;;;;;;;;45.00;32.50;;;;;14.32;73.79;102605.06;4988576;28;45495;-70
2021/09/22 06:51:16;;;;;;;;;42.33;31.00;;;;;14.36;74.02;102596.13;4978724;28;47724;-70
2021/09/22 06:53:42;;;;;;;;;37.50;31.00;;;;;14.47;73.53;102605.53;4989449;28;46912;-70
2021/09/22 06:56:07;;;;;;;;;45.00;33.25;;;;;14.57;73.27;102601.75;4990827;28;45462;-70
2021/09/22 06:58:32;;;;;;;;;35.75;30.50;;;;;14.67;73.14;102608.50;4990729;28;56611;-70
2021/09/22 07:00:58;;;;;;;;;36.25;32.00;;;;;14.74;73.16;102601.22;4995468;28;45385;-70
2021/09/22 07:03:23;;;;;;;;;36.25;31.75;;;;;14.86;73.25;102600.84;4977047;28;46170;-70
2021/09/22 07:05:49;;;;;;;;;35.50;30.50;;;;;14.91;72.38;102603.34;4990005;28;45492;-70
2021/09/22 07:08:15;;;;;;;;;40.25;31.50;;;;;15.06;72.18;102610.81;4990964;28;45432;-70
2021/09/22 07:10:41;;;;;;;;;40.25;33.25;;;;;15.18;72.00;102618.34;4991263;28;45396;-70
2021/09/22 07:13:07;;;;;;;;;44.75;35.00;;;;;15.33;72.04;102623.16;4979934;28;46090;-70
2021/09/22 07:15:32;;;;;;;;;43.00;33.00;;;;;15.46;71.95;102620.09;4992340;28;45430;-70
2021/09/22 07:17:58;;;;;;;;;35.75;31.50;;;;;15.55;71.22;102625.94;4991691;28;45507;-70
2021/09/22 07:20:23;;;;;;;;;39.25;35.00;;;;;15.75;70.75;102621.78;4990729;28;45490;-70
2021/09/22 07:22:49;;;;;;;;;39.75;32.50;;;;;16.05;70.30;102622.50;4990816;28;46307;-70
2021/09/22 07:25:14;;;;;;;;;36.50;29.00;;;;;16.27;69.69;102626.09;4992901;28;45325;-70
2021/09/22 07:27:40;;;;;;;;;30.50;28.00;;;;;16.39;68.98;102625.66;4993430;28;45387;-70
2021/09/22 07:30:07;;;;;;;;;43.75;31.50;;;;;16.64;68.43;102617.63;4990896;28;45359;-70
2021/09/22 07:32:33;;;;;;;;;34.75;30.00;;;;;16.93;67.65;102637.78;4990071;28;48044;-70
2021/09/22 07:34:58;;;;;;;;;36.00;29.00;;;;;17.10;67.25;102638.88;4989737;28;45883;-70
2021/09/22 07:37:25;;;;;;;;;34.25;27.50;;;;;17.30;67.21;102638.94;4991454;28;45510;-70
2021/09/22 07:39:50;;;;;;;;;34.25;28.75;;;;;17.76;66.41;102633.53;4994623;28;45622;-70
2021/09/22 07:42:16;;;;;;;;;33.75;27.25;;;;;18.13;65.40;102641.66;4991115;28;46187;-70
2021/09/22 07:44:45;;;;;;;;;36.25;30.75;;;;;18.38;64.94;102640.56;4990024;28;45459;-70
2021/09/22 07:47:13;;;;;;;;;40.25;31.75;;;;;18.82;64.31;102640.31;4990518;28;45615;-70
2021/09/22 07:49:40;;;;;;;;;35.75;29.50;;;;;20.26;64.05;102636.59;4990393;28;45436;-70
2021/09/22 07:52:06;;;;;;;;;33.00;29.00;;;;;21.88;60.92;102641.63;4993674;28;45455;-70
2021/09/22 07:54:31;;;;;;;;;34.00;26.50;;;;;22.29;58.78;102640.06;4991880;28;45431;-70
2021/09/22 07:56:56;;;;;;;;;32.25;26.25;;;;;22.12;56.29;102641.97;4990950;28;45428;-70
2021/09/22 07:59:22;;;;;;;;;35.25;27.50;;;;;22.06;56.07;102647.66;4989934;28;45353;-70
2021/09/22 08:01:47;;;;;;;;;33.00;27.00;;;;;21.88;56.18;102640.78;4990971;28;45695;-70
2021/09/22 08:04:14;;;;;;;;;28.25;27.00;;;;;21.89;55.48;102643.34;4992324;28;45443;-70
2021/09/22 08:06:40;;;;;;;;;31.75;28.75;;;;;21.83;56.58;102648.22;4992941;28;45342;-70
2021/09/22 08:09:05;;;;;;;;;33.50;27.00;;;;;22.11;56.14;102650.09;4990535;28;45402;-70
2021/09/22 08:11:30;;;;;;;;;35.75;28.75;;;;;22.98;57.04;102643.75;4989804;28;50249;-70
2021/09/22 08:13:55;;;;;;;;;35.50;30.75;;;;;23.45;54.58;102643.28;4989391;28;51152;-70
2021/09/22 08:16:21;;;;;;;;;28.00;23.25;;;;;24.55;53.63;102641.03;4991397;28;45297;-70
2021/09/22 08:18:46;;;;;;;;;31.50;26.50;;;;;26.03;51.17;102637.94;4993469;28;45887;-70
2021/09/22 08:21:14;;;;;;;;;27.75;22.75;;;;;27.89;49.49;102631.66;4990877;28;46418;-70
2021/09/22 08:23:41;;;;;;;;;26.75;22.75;;;;;29.24;47.31;102639.41;4989883;28;45510;-70
2021/09/22 08:26:07;;;;;;;;;25.25;22.75;;;;;29.27;46.87;102646.38;4990500;28;45618;-70
2021/09/22 08:28:32;;;;;;;;;23.50;23.50;;;;;29.16;44.01;102644.66;4989090;28;45604;-70
2021/09/22 08:30:57;;;;;;;;;26.00;20.50;;;;;29.90;43.94;102647.59;4994543;28;46775;-70
2021/09/22 08:33:22;;;;;;;;;29.50;25.25;;;;;30.22;42.46;102649.09;4990187;28;45573;-70
2021/09/22 08:35:48;;;;;;;;;27.25;24.75;;;;;31.06;42.70;102648.09;4989645;28;45475;-71
2021/09/22 08:38:13;;;;;;;;;28.25;24.25;;;;;32.92;41.83;102639.50;4989856;28;45869;-71
2021/09/22 08:40:38;;;;;;;;;27.75;22.25;;;;;34.86;39.64;102643.09;4989507;28;46052;-71
2021/09/22 08:43:04;;;;;;;;;27.25;26.25;;;;;36.41;36.87;102648.06;4992796;28;45440;-71
2021/09/22 08:45:31;;;;;;;;;26.00;22.75;;;;;37.64;35.52;102646.19;4991626;28;45336;-71
2021/09/22 08:47:57;;;;;;;;;27.75;23.75;;;;;38.64;33.59;102652.09;4990080;28;45421;-71
2021/09/22 08:50:22;;;;;;;;;22.75;21.00;;;;;39.45;32.17;102653.94;4989372;28;47256;-71
2021/09/22 08:52:48;;;;;;;;;23.00;22.00;;;;;40.22;31.50;102649.63;4989732;28;45400;-71
2021/09/22 08:55:16;;;;;;;;;25.00;20.00;;;;;41.14;29.70;102656.59;4992331;28;45811;-71
2021/09/22 08:57:42;;;;;;;;;19.25;17.50;;;;;41.97;30.10;102655.41;4991850;28;45400;-71
2021/09/22 09:00:10;;;;;;;;;23.00;22.25;;;;;42.54;28.39;102666.22;4989876;28;46634;-71
2021/09/22 09:02:41;;;;;;;;;23.50;22.75;;;;;43.02;27.11;102663.47;4980932;28;45636;-71
2021/09/22 09:05:12;;;;;;;;;23.75;23.25;;;;;43.68;26.11;102659.56;4983392;28;45488;-71
2021/09/22 09:08:00;;;;;;;;;28.75;20.00;;;;;44.06;25.01;102657.38;4989509;28;45415;-71
2021/09/22 09:10:29;;;;;;;;;23.75;22.00;;;;;44.37;25.66;102664.44;4989713;28;46517;-71
2021/09/22 09:13:07;;;;;;;;;24.75;21.25;;;;;44.63;24.39;102660.25;4977766;28;45690;-71
2021/09/22 09:15:42;;;;;;;;;23.00;20.75;;;;;44.76;23.75;102654.41;4992472;28;45455;-71
2021/09/22 09:18:21;;;;;;;;;26.50;24.25;;;;;45.23;23.43;102660.53;4997769;28;45356;-71
2021/09/22 09:20:49;;;;;;;;;22.00;20.75;;;;;45.66;22.95;102658.16;4992923;28;45376;-71
2021/09/22 09:23:16;;;;;;;;;24.50;21.25;;;;;46.00;22.51;102647.84;4992495;28;45671;-71
2021/09/22 09:25:57;;;;;;;;;22.25;20.50;;;;;46.26;21.86;102649.00;4991008;28;45327;-71
2021/09/22 09:28:33;;;;;;;;;21.00;20.25;;;;;46.08;21.45;102641.81;4982872;28;46727;-71
2021/09/22 09:31:06;;;;;;;;;22.00;20.50;;;;;45.96;22.18;102639.16;4980419;28;47434;-70
2021/09/22 09:33:42;;;;;;;;;21.50;19.75;;;;;45.24;21.49;102648.34;4980952;28;45424;-71
2021/09/22 09:36:26;;;;;;;;;19.50;18.25;;;;;44.55;21.84;102649.56;4996073;28;45432;-71
2021/09/22 09:38:56;;;;;;;;;20.75;19.00;;;;;43.83;22.09;102648.03;5001029;28;45309;-71
2021/09/22 09:41:50;;;;;;;;;20.00;18.50;;;;;42.91;22.62;102651.25;4987831;28;46501;-71
2021/09/22 09:44:18;;;;;;;;;20.75;19.00;;;;;42.04;22.52;102649.84;4992728;28;45463;-71
2021/09/22 09:46:44;;;;;;;;;21.75;17.50;;;;;41.20;23.94;102641.91;4992548;28;45355;-71
2021/09/22 09:49:16;;;;;;;;;17.00;15.75;;;;;40.30;23.60;102637.50;4995125;28;45520;-71
2021/09/22 09:51:46;;;;;;;;;19.00;16.75;;;;;39.56;24.09;102624.94;4994912;28;45581;-71
2021/09/22 09:54:14;;;;;;;;;19.00;17.25;;;;;39.12;24.51;102635.50;4995664;28;45682;-71
2021/09/22 09:56:40;;;;;;;;;19.50;19.00;;;;;38.45;24.44;102622.63;4991848;28;45530;-70
2021/09/22 09:59:05;;;;;;;;;19.50;17.00;;;;;38.12;25.07;102622.47;4992519;28;45521;-71
2021/09/22 10:01:46;;;;;;;;;19.50;17.00;;;;;37.88;26.23;102623.78;4988688;28;45660;-70
2021/09/22 10:04:14;;;;;;;;;15.00;15.00;;;;;37.35;25.23;102628.84;4981245;28;45660;-70
2021/09/22 10:06:40;;;;;;;;;15.00;12.50;;;;;37.08;25.37;102616.78;4994657;28;45368;-71
2021/09/22 10:09:06;;;;;;;;;16.25;14.25;;;;;36.96;26.18;102618.34;4992106;28;45413;-70
2021/09/22 10:11:35;;;;;;;;;17.00;15.75;;;;;36.62;25.79;102617.13;4991868;28;45586;-71
2021/09/22 10:14:03;;;;;;;;;17.75;15.25;;;;;36.45;26.02;102610.19;4991818;28;45582;-71
2021/09/22 10:16:29;;;;;;;;;15.00;15.00;;;;;36.45;26.39;102611.03;4992516;28;45431;-71
2021/09/22 10:18:56;;;;;;;;;17.75;16.25;;;;;36.53;26.04;102615.53;4996300;28;45527;-71
2021/09/22 10:21:23;;;;;;;;;17.75;16.75;;;;;36.54;27.18;102604.41;4992271;28;46391;-71
2021/09/22 10:23:57;;;;;;;;;14.50;13.25;;;;;36.58;26.08;102602.09;4991625;28;45310;-71
2021/09/22 10:26:24;;;;;;;;;13.75;12.75;;;;;36.30;26.14;102589.13;4991093;28;45629;-70
2021/09/22 10:28:49;;;;;;;;;13.75;12.50;;;;;35.61;26.15;102593.19;4991775;28;45608;-70
2021/09/22 10:31:34;;;;;;;;;13.75;9.50;;;;;34.70;26.48;102594.88;4993571;28;46200;-70
2021/09/22 10:34:00;;;;;;;;;9.25;8.00;;;;;33.99;27.42;102591.28;4980637;28;45502;-70
2021/09/22 10:36:34;;;;;;;;;13.75;10.00;;;;;33.53;27.47;102580.13;4992693;28;45299;-70
2021/09/22 10:39:00;;;;;;;;;9.50;9.50;;;;;33.13;28.34;102576.38;4982773;28;45329;-70
2021/09/22 10:41:31;;;;;;;;;9.50;8.25;;;;;32.60;27.88;102574.06;4987618;28;46400;-70
2021/09/22 10:43:58;;;;;;;;;11.00;7.25;;;;;32.15;28.54;102575.22;4991313;28;45643;-71
2021/09/22 10:46:24;;;;;;;;;9.00;6.00;;;;;31.78;29.19;102570.09;4992687;28;45515;-71
2021/09/22 10:48:56;;;;;;;;;6.00;6.00;;;;;31.33;28.92;102569.28;4995182;28;45546;-70
2021/09/22 10:51:38;;;;;;;;;7.25;7.25;;;;;31.07;28.94;102568.38;4992000;28;47016;-71
2021/09/22 10:54:17;;;;;;;;;7.50;7.50;;;;;30.80;28.91;102564.72;4982525;28;45504;-70
2021/09/22 10:56:58;;;;;;;;;11.00;7.75;;;;;30.53;29.19;102570.16;4988571;28;45668;-70
2021/09/22 10:59:32;;;;;;;;;9.00;6.75;;;;;30.15;29.11;102564.78;4983320;28;45535;-70
2021/09/22 11:01:59;;;;;;;;;7.25;7.00;;;;;29.94;29.36;102558.72;4983419;28;47501;-70
2021/09/22 11:04:26;;;;;;;;;8.50;7.25;;;;;29.80;29.39;102561.91;4992016;28;45447;-71
2021/09/22 11:06:53;;;;;;;;;7.75;6.50;;;;;29.64;29.50;102548.97;4994778;28;45575;-71